sensor_id;sensor_type;location;lat;lon;timestamp;temperature;humidity
44229;DHT22;29904;51.058;5.378;2024-02-04T00:00:01;10.10;99.90
44229;DHT22;29904;51.058;5.378;2024-02-04T00:02:26;10.00;99.90
44229;DHT22;29904;51.058;5.378;2024-02-04T00:04:52;10.00;99.90
44229;DHT22;29904;51.058;5.378;2024-02-04T00:07:18;10.10;99.90
44229;DHT22;29904;51.058;5.378;2024-02-04T00:09:43;10.10;99.90
44229;DHT22;29904;51.058;5.378;2024-02-04T00:12:12;10.10;99.90
44229;DHT22;29904;51.058;5.378;2024-02-04T00:14:37;10.10;99.90
44229;DHT22;29904;51.058;5.378;2024-02-04T00:17:03;10.00;99.90
44229;DHT22;29904;51.058;5.378;2024-02-04T00:19:29;10.00;99.90
44229;DHT22;29904;51.058;5.378;2024-02-04T00:21:54;10.00;99.90
44229;DHT22;29904;51.058;5.378;2024-02-04T00:24:20;10.10;99.90
44229;DHT22;29904;51.058;5.378;2024-02-04T00:26:45;10.10;99.90
44229;DHT22;29904;51.058;5.378;2024-02-04T00:29:11;10.10;99.90
44229;DHT22;29904;51.058;5.378;2024-02-04T00:31:37;10.10;99.90
44229;DHT22;29904;51.058;5.378;2024-02-04T00:34:02;10.10;99.90
44229;DHT22;29904;51.058;5.378;2024-02-04T00:36:28;10.10;99.90
44229;DHT22;29904;51.058;5.378;2024-02-04T00:38:54;10.10;99.90
44229;DHT22;29904;51.058;5.378;2024-02-04T00:41:19;10.10;99.90
44229;DHT22;29904;51.058;5.378;2024-02-04T00:43:45;10.10;99.90
44229;DHT22;29904;51.058;5.378;2024-02-04T00:46:10;10.10;99.90
44229;DHT22;29904;51.058;5.378;2024-02-04T00:48:36;10.10;99.90
44229;DHT22;29904;51.058;5.378;2024-02-04T00:51:02;10.10;99.90
44229;DHT22;29904;51.058;5.378;2024-02-04T00:53:28;10.10;99.90
44229;DHT22;29904;51.058;5.378;2024-02-04T00:56:05;10.10;99.90
44229;DHT22;29904;51.058;5.378;2024-02-04T00:58:30;10.10;99.90
44229;DHT22;29904;51.058;5.378;2024-02-04T01:00:56;10.10;99.90
44229;DHT22;29904;51.058;5.378;2024-02-04T01:03:22;10.10;99.90
44229;DHT22;29904;51.058;5.378;2024-02-04T01:05:47;10.10;99.90
44229;DHT22;29904;51.058;5.378;2024-02-04T01:08:13;10.10;99.90
44229;DHT22;29904;51.058;5.378;2024-02-04T01:10:38;10.10;99.90
44229;DHT22;29904;51.058;5.378;2024-02-04T01:13:04;10.20;99.90
44229;DHT22;29904;51.058;5.378;2024-02-04T01:15:29;10.10;99.90
44229;DHT22;29904;51.058;5.378;2024-02-04T01:17:55;10.20;99.90
44229;DHT22;29904;51.058;5.378;2024-02-04T01:20:20;10.20;99.90
44229;DHT22;29904;51.058;5.378;2024-02-04T01:22:46;10.20;99.90
44229;DHT22;29904;51.058;5.378;2024-02-04T01:25:12;10.20;99.90
44229;DHT22;29904;51.058;5.378;2024-02-04T01:27:37;10.20;99.90
44229;DHT22;29904;51.058;5.378;2024-02-04T01:30:03;10.20;99.90
44229;DHT22;29904;51.058;5.378;2024-02-04T01:32:29;10.20;99.90
44229;DHT22;29904;51.058;5.378;2024-02-04T01:34:54;10.20;99.90
44229;DHT22;29904;51.058;5.378;2024-02-04T01:37:20;10.20;99.90
44229;DHT22;29904;51.058;5.378;2024-02-04T01:39:45;10.20;99.90
44229;DHT22;29904;51.058;5.378;2024-02-04T01:42:11;10.20;99.90
44229;DHT22;29904;51.058;5.378;2024-02-04T01:44:36;10.20;99.90
44229;DHT22;29904;51.058;5.378;2024-02-04T01:47:02;10.20;99.90
44229;DHT22;29904;51.058;5.378;2024-02-04T01:49:28;10.20;99.90
44229;DHT22;29904;51.058;5.378;2024-02-04T01:51:54;10.20;99.90
44229;DHT22;29904;51.058;5.378;2024-02-04T01:54:20;10.20;99.90
44229;DHT22;29904;51.058;5.378;2024-02-04T01:56:47;10.20;99.90
44229;DHT22;29904;51.058;5.378;2024-02-04T01:59:14;10.20;99.90
44229;DHT22;29904;51.058;5.378;2024-02-04T02:01:40;10.20;99.90
44229;DHT22;29904;51.058;5.378;2024-02-04T02:04:07;10.20;99.90
44229;DHT22;29904;51.058;5.378;2024-02-04T02:06:32;10.20;99.90
44229;DHT22;29904;51.058;5.378;2024-02-04T02:08:58;10.20;99.90
44229;DHT22;29904;51.058;5.378;2024-02-04T02:12:01;10.20;99.90
44229;DHT22;29904;51.058;5.378;2024-02-04T02:14:18;10.20;99.90
44229;DHT22;29904;51.058;5.378;2024-02-04T02:16:45;10.20;99.90
44229;DHT22;29904;51.058;5.378;2024-02-04T02:19:15;10.20;99.90
44229;DHT22;29904;51.058;5.378;2024-02-04T02:21:46;10.20;99.90
44229;DHT22;29904;51.058;5.378;2024-02-04T02:26:56;10.20;99.90
44229;DHT22;29904;51.058;5.378;2024-02-04T02:29:24;10.20;99.90
44229;DHT22;29904;51.058;5.378;2024-02-04T02:31:50;10.20;99.90
44229;DHT22;29904;51.058;5.378;2024-02-04T02:34:16;10.20;99.90
44229;DHT22;29904;51.058;5.378;2024-02-04T02:36:45;10.20;99.90
44229;DHT22;29904;51.058;5.378;2024-02-04T02:39:31;10.20;99.90
44229;DHT22;29904;51.058;5.378;2024-02-04T02:41:59;10.20;99.90
44229;DHT22;29904;51.058;5.378;2024-02-04T02:44:25;10.20;99.90
44229;DHT22;29904;51.058;5.378;2024-02-04T02:46:52;10.20;99.90
44229;DHT22;29904;51.058;5.378;2024-02-04T02:49:19;10.20;99.90
44229;DHT22;29904;51.058;5.378;2024-02-04T02:51:45;10.20;99.90
44229;DHT22;29904;51.058;5.378;2024-02-04T02:54:10;10.20;99.90
44229;DHT22;29904;51.058;5.378;2024-02-04T02:56:37;10.20;99.90
44229;DHT22;29904;51.058;5.378;2024-02-04T02:59:02;10.20;99.90
44229;DHT22;29904;51.058;5.378;2024-02-04T03:01:29;10.20;99.90
44229;DHT22;29904;51.058;5.378;2024-02-04T03:03:54;10.20;99.90
44229;DHT22;29904;51.058;5.378;2024-02-04T03:06:20;10.20;99.90
44229;DHT22;29904;51.058;5.378;2024-02-04T03:08:45;10.20;99.90
44229;DHT22;29904;51.058;5.378;2024-02-04T03:11:11;10.30;99.90
44229;DHT22;29904;51.058;5.378;2024-02-04T03:13:39;10.30;99.90
44229;DHT22;29904;51.058;5.378;2024-02-04T03:16:11;10.30;99.90
44229;DHT22;29904;51.058;5.378;2024-02-04T03:18:40;10.30;99.90
44229;DHT22;29904;51.058;5.378;2024-02-04T03:21:12;10.30;99.90
44229;DHT22;29904;51.058;5.378;2024-02-04T03:23:38;10.30;99.90
44229;DHT22;29904;51.058;5.378;2024-02-04T03:26:04;10.30;99.90
44229;DHT22;29904;51.058;5.378;2024-02-04T03:28:29;10.30;99.90
44229;DHT22;29904;51.058;5.378;2024-02-04T03:30:55;10.30;99.90
44229;DHT22;29904;51.058;5.378;2024-02-04T03:33:20;10.30;99.90
44229;DHT22;29904;51.058;5.378;2024-02-04T03:35:46;10.30;99.90
44229;DHT22;29904;51.058;5.378;2024-02-04T03:38:11;10.30;99.90
44229;DHT22;29904;51.058;5.378;2024-02-04T03:40:37;10.30;99.90
44229;DHT22;29904;51.058;5.378;2024-02-04T03:43:02;10.30;99.90
44229;DHT22;29904;51.058;5.378;2024-02-04T03:45:28;10.30;99.90
44229;DHT22;29904;51.058;5.378;2024-02-04T03:47:54;10.30;99.90
44229;DHT22;29904;51.058;5.378;2024-02-04T03:50:19;10.30;99.90
44229;DHT22;29904;51.058;5.378;2024-02-04T03:52:45;10.30;99.90
44229;DHT22;29904;51.058;5.378;2024-02-04T03:55:10;10.30;99.90
44229;DHT22;29904;51.058;5.378;2024-02-04T03:57:36;10.30;99.90
44229;DHT22;29904;51.058;5.378;2024-02-04T04:00:02;10.30;99.90
44229;DHT22;29904;51.058;5.378;2024-02-04T04:02:28;10.30;99.90
44229;DHT22;29904;51.058;5.378;2024-02-04T04:04:53;10.30;99.90
44229;DHT22;29904;51.058;5.378;2024-02-04T04:07:19;10.30;99.90
44229;DHT22;29904;51.058;5.378;2024-02-04T04:09:44;10.30;99.90
44229;DHT22;29904;51.058;5.378;2024-02-04T04:12:10;10.30;99.90
44229;DHT22;29904;51.058;5.378;2024-02-04T04:14:35;10.40;99.90
44229;DHT22;29904;51.058;5.378;2024-02-04T04:17:01;10.40;99.90
44229;DHT22;29904;51.058;5.378;2024-02-04T04:19:27;10.40;99.90
44229;DHT22;29904;51.058;5.378;2024-02-04T04:21:52;10.40;99.90
44229;DHT22;29904;51.058;5.378;2024-02-04T04:24:19;10.40;99.90
44229;DHT22;29904;51.058;5.378;2024-02-04T04:26:47;10.40;99.90
44229;DHT22;29904;51.058;5.378;2024-02-04T04:29:13;10.40;99.90
44229;DHT22;29904;51.058;5.378;2024-02-04T04:31:38;10.40;99.90
44229;DHT22;29904;51.058;5.378;2024-02-04T04:34:04;10.40;99.90
44229;DHT22;29904;51.058;5.378;2024-02-04T04:36:29;10.40;99.90
44229;DHT22;29904;51.058;5.378;2024-02-04T04:38:55;10.40;99.90
44229;DHT22;29904;51.058;5.378;2024-02-04T04:41:20;10.40;99.90
44229;DHT22;29904;51.058;5.378;2024-02-04T04:43:46;10.40;99.90
44229;DHT22;29904;51.058;5.378;2024-02-04T04:46:11;10.40;99.90
44229;DHT22;29904;51.058;5.378;2024-02-04T04:48:37;10.40;99.90
44229;DHT22;29904;51.058;5.378;2024-02-04T04:51:02;10.50;99.90
44229;DHT22;29904;51.058;5.378;2024-02-04T04:53:28;10.40;99.90
44229;DHT22;29904;51.058;5.378;2024-02-04T04:55:53;10.40;99.90
44229;DHT22;29904;51.058;5.378;2024-02-04T04:58:19;10.40;99.90
44229;DHT22;29904;51.058;5.378;2024-02-04T05:00:44;10.40;99.90
44229;DHT22;29904;51.058;5.378;2024-02-04T05:03:10;10.40;99.90
44229;DHT22;29904;51.058;5.378;2024-02-04T05:05:36;10.40;99.90
44229;DHT22;29904;51.058;5.378;2024-02-04T05:08:01;10.40;99.90
44229;DHT22;29904;51.058;5.378;2024-02-04T05:10:27;10.40;99.90
44229;DHT22;29904;51.058;5.378;2024-02-04T05:12:53;10.40;99.90
44229;DHT22;29904;51.058;5.378;2024-02-04T05:15:18;10.40;99.90
44229;DHT22;29904;51.058;5.378;2024-02-04T05:17:44;10.40;99.90
44229;DHT22;29904;51.058;5.378;2024-02-04T05:20:09;10.40;99.90
44229;DHT22;29904;51.058;5.378;2024-02-04T05:22:35;10.40;99.90
44229;DHT22;29904;51.058;5.378;2024-02-04T05:25:01;10.40;99.90
44229;DHT22;29904;51.058;5.378;2024-02-04T05:27:26;10.40;99.90
44229;DHT22;29904;51.058;5.378;2024-02-04T05:29:52;10.40;99.90
44229;DHT22;29904;51.058;5.378;2024-02-04T05:32:17;10.30;99.90
44229;DHT22;29904;51.058;5.378;2024-02-04T05:34:43;10.30;99.90
44229;DHT22;29904;51.058;5.378;2024-02-04T05:37:08;10.30;99.90
44229;DHT22;29904;51.058;5.378;2024-02-04T05:39:34;10.30;99.90
44229;DHT22;29904;51.058;5.378;2024-02-04T05:41:59;10.30;99.90
44229;DHT22;29904;51.058;5.378;2024-02-04T05:44:25;10.30;99.90
44229;DHT22;29904;51.058;5.378;2024-02-04T05:46:51;10.30;99.90
44229;DHT22;29904;51.058;5.378;2024-02-04T05:49:16;10.30;99.90
44229;DHT22;29904;51.058;5.378;2024-02-04T05:51:42;10.30;99.90
44229;DHT22;29904;51.058;5.378;2024-02-04T05:54:07;10.30;99.90
44229;DHT22;29904;51.058;5.378;2024-02-04T05:56:33;10.30;99.90
44229;DHT22;29904;51.058;5.378;2024-02-04T05:58:59;10.30;99.90
44229;DHT22;29904;51.058;5.378;2024-02-04T06:01:24;10.30;99.90
44229;DHT22;29904;51.058;5.378;2024-02-04T06:03:50;10.30;99.90
44229;DHT22;29904;51.058;5.378;2024-02-04T06:06:16;10.30;99.90
44229;DHT22;29904;51.058;5.378;2024-02-04T06:08:42;10.30;99.90
44229;DHT22;29904;51.058;5.378;2024-02-04T06:11:11;10.30;99.90
44229;DHT22;29904;51.058;5.378;2024-02-04T06:13:36;10.30;99.90
44229;DHT22;29904;51.058;5.378;2024-02-04T06:16:02;10.30;99.90
44229;DHT22;29904;51.058;5.378;2024-02-04T06:18:28;10.30;99.90
44229;DHT22;29904;51.058;5.378;2024-02-04T06:20:53;10.30;99.90
44229;DHT22;29904;51.058;5.378;2024-02-04T06:23:19;10.30;99.90
44229;DHT22;29904;51.058;5.378;2024-02-04T06:25:45;10.30;99.90
44229;DHT22;29904;51.058;5.378;2024-02-04T06:28:10;10.30;99.90
44229;DHT22;29904;51.058;5.378;2024-02-04T06:30:36;10.30;99.90
44229;DHT22;29904;51.058;5.378;2024-02-04T06:33:01;10.30;99.90
44229;DHT22;29904;51.058;5.378;2024-02-04T06:35:28;10.30;99.90
44229;DHT22;29904;51.058;5.378;2024-02-04T06:37:53;10.30;99.90
44229;DHT22;29904;51.058;5.378;2024-02-04T06:40:19;10.30;99.90
44229;DHT22;29904;51.058;5.378;2024-02-04T06:42:44;10.30;99.90
44229;DHT22;29904;51.058;5.378;2024-02-04T06:45:10;10.30;99.90
44229;DHT22;29904;51.058;5.378;2024-02-04T06:47:36;10.30;99.90
44229;DHT22;29904;51.058;5.378;2024-02-04T06:50:01;10.30;99.90
44229;DHT22;29904;51.058;5.378;2024-02-04T06:52:30;10.30;99.90
44229;DHT22;29904;51.058;5.378;2024-02-04T06:54:56;10.30;99.90
44229;DHT22;29904;51.058;5.378;2024-02-04T06:57:21;10.30;99.90
44229;DHT22;29904;51.058;5.378;2024-02-04T06:59:47;10.30;99.90
44229;DHT22;29904;51.058;5.378;2024-02-04T07:02:12;10.20;99.90
44229;DHT22;29904;51.058;5.378;2024-02-04T07:04:38;10.30;99.90
44229;DHT22;29904;51.058;5.378;2024-02-04T07:07:03;10.20;99.90
44229;DHT22;29904;51.058;5.378;2024-02-04T07:09:29;10.20;99.90
44229;DHT22;29904;51.058;5.378;2024-02-04T07:11:54;10.20;99.90
44229;DHT22;29904;51.058;5.378;2024-02-04T07:14:20;10.20;99.90
44229;DHT22;29904;51.058;5.378;2024-02-04T07:16:46;10.20;99.90
44229;DHT22;29904;51.058;5.378;2024-02-04T07:19:11;10.20;99.90
44229;DHT22;29904;51.058;5.378;2024-02-04T07:21:37;10.20;99.90
44229;DHT22;29904;51.058;5.378;2024-02-04T07:24:02;10.20;99.90
44229;DHT22;29904;51.058;5.378;2024-02-04T07:26:28;10.30;99.90
44229;DHT22;29904;51.058;5.378;2024-02-04T07:28:54;10.20;99.90
44229;DHT22;29904;51.058;5.378;2024-02-04T07:31:19;10.20;99.90
44229;DHT22;29904;51.058;5.378;2024-02-04T07:33:45;10.30;99.90
44229;DHT22;29904;51.058;5.378;2024-02-04T07:36:10;10.30;99.90
44229;DHT22;29904;51.058;5.378;2024-02-04T07:38:36;10.30;99.90
44229;DHT22;29904;51.058;5.378;2024-02-04T07:41:02;10.30;99.90
44229;DHT22;29904;51.058;5.378;2024-02-04T07:43:27;10.30;99.90
44229;DHT22;29904;51.058;5.378;2024-02-04T07:45:53;10.30;99.90
44229;DHT22;29904;51.058;5.378;2024-02-04T07:48:18;10.30;99.90
44229;DHT22;29904;51.058;5.378;2024-02-04T07:50:45;10.30;99.90
44229;DHT22;29904;51.058;5.378;2024-02-04T07:53:11;10.30;99.90
44229;DHT22;29904;51.058;5.378;2024-02-04T07:55:36;10.30;99.90
44229;DHT22;29904;51.058;5.378;2024-02-04T07:58:02;10.30;99.90
44229;DHT22;29904;51.058;5.378;2024-02-04T08:00:27;10.30;99.90
44229;DHT22;29904;51.058;5.378;2024-02-04T08:02:54;10.40;99.90
44229;DHT22;29904;51.058;5.378;2024-02-04T08:05:20;10.40;99.90
44229;DHT22;29904;51.058;5.378;2024-02-04T08:07:45;10.40;99.90
44229;DHT22;29904;51.058;5.378;2024-02-04T08:10:11;10.40;99.90
44229;DHT22;29904;51.058;5.378;2024-02-04T08:12:37;10.40;99.90
44229;DHT22;29904;51.058;5.378;2024-02-04T08:15:03;10.40;99.90
44229;DHT22;29904;51.058;5.378;2024-02-04T08:17:28;10.40;99.90
44229;DHT22;29904;51.058;5.378;2024-02-04T08:19:56;10.40;99.90
44229;DHT22;29904;51.058;5.378;2024-02-04T08:22:22;10.40;99.90
44229;DHT22;29904;51.058;5.378;2024-02-04T08:24:47;10.40;99.90
44229;DHT22;29904;51.058;5.378;2024-02-04T08:27:13;10.50;99.90
44229;DHT22;29904;51.058;5.378;2024-02-04T08:29:41;10.50;99.90
44229;DHT22;29904;51.058;5.378;2024-02-04T08:32:07;10.50;99.90
44229;DHT22;29904;51.058;5.378;2024-02-04T08:34:33;10.50;99.90
44229;DHT22;29904;51.058;5.378;2024-02-04T08:36:58;10.50;99.90
44229;DHT22;29904;51.058;5.378;2024-02-04T08:39:24;10.60;99.90
44229;DHT22;29904;51.058;5.378;2024-02-04T08:41:51;10.50;99.90
44229;DHT22;29904;51.058;5.378;2024-02-04T08:44:16;10.50;99.90
44229;DHT22;29904;51.058;5.378;2024-02-04T08:46:42;10.50;99.90
44229;DHT22;29904;51.058;5.378;2024-02-04T08:49:08;10.50;99.90
44229;DHT22;29904;51.058;5.378;2024-02-04T08:51:33;10.60;99.90
44229;DHT22;29904;51.058;5.378;2024-02-04T08:53:59;10.60;99.90
44229;DHT22;29904;51.058;5.378;2024-02-04T08:56:25;10.60;99.90
44229;DHT22;29904;51.058;5.378;2024-02-04T08:58:50;10.70;99.90
44229;DHT22;29904;51.058;5.378;2024-02-04T09:01:16;10.70;99.90
44229;DHT22;29904;51.058;5.378;2024-02-04T09:03:42;10.70;99.90
44229;DHT22;29904;51.058;5.378;2024-02-04T09:06:07;10.70;99.90
44229;DHT22;29904;51.058;5.378;2024-02-04T09:08:33;10.70;99.90
44229;DHT22;29904;51.058;5.378;2024-02-04T09:10:58;10.70;99.90
44229;DHT22;29904;51.058;5.378;2024-02-04T09:13:24;10.70;99.90
44229;DHT22;29904;51.058;5.378;2024-02-04T09:15:50;10.70;99.90
44229;DHT22;29904;51.058;5.378;2024-02-04T09:18:15;10.80;99.90
44229;DHT22;29904;51.058;5.378;2024-02-04T09:20:41;10.80;99.90
44229;DHT22;29904;51.058;5.378;2024-02-04T09:23:06;10.80;99.90
44229;DHT22;29904;51.058;5.378;2024-02-04T09:25:32;10.80;99.90
44229;DHT22;29904;51.058;5.378;2024-02-04T09:27:57;10.80;99.90
44229;DHT22;29904;51.058;5.378;2024-02-04T09:30:23;10.80;99.90
44229;DHT22;29904;51.058;5.378;2024-02-04T09:32:48;10.80;99.90
44229;DHT22;29904;51.058;5.378;2024-02-04T09:35:14;10.80;99.90
44229;DHT22;29904;51.058;5.378;2024-02-04T09:37:39;10.80;99.90
44229;DHT22;29904;51.058;5.378;2024-02-04T09:40:05;10.80;99.90
44229;DHT22;29904;51.058;5.378;2024-02-04T09:42:31;10.80;99.90
44229;DHT22;29904;51.058;5.378;2024-02-04T09:44:57;10.80;99.90
44229;DHT22;29904;51.058;5.378;2024-02-04T09:47:22;10.80;99.90
44229;DHT22;29904;51.058;5.378;2024-02-04T09:49:48;10.80;99.90
44229;DHT22;29904;51.058;5.378;2024-02-04T09:52:14;10.80;99.90
44229;DHT22;29904;51.058;5.378;2024-02-04T09:54:45;10.80;99.90
44229;DHT22;29904;51.058;5.378;2024-02-04T09:57:11;10.80;99.90
44229;DHT22;29904;51.058;5.378;2024-02-04T09:59:38;10.90;99.90
44229;DHT22;29904;51.058;5.378;2024-02-04T10:02:04;10.90;99.90
44229;DHT22;29904;51.058;5.378;2024-02-04T10:04:30;11.00;99.90
44229;DHT22;29904;51.058;5.378;2024-02-04T10:06:56;11.00;99.90
44229;DHT22;29904;51.058;5.378;2024-02-04T10:09:22;11.00;99.90
44229;DHT22;29904;51.058;5.378;2024-02-04T10:11:47;11.00;99.90
44229;DHT22;29904;51.058;5.378;2024-02-04T10:14:13;11.00;99.90
44229;DHT22;29904;51.058;5.378;2024-02-04T10:16:39;11.00;99.90
44229;DHT22;29904;51.058;5.378;2024-02-04T10:19:05;11.00;99.90
44229;DHT22;29904;51.058;5.378;2024-02-04T10:21:31;11.10;99.90
44229;DHT22;29904;51.058;5.378;2024-02-04T10:23:57;11.10;99.90
44229;DHT22;29904;51.058;5.378;2024-02-04T10:26:22;11.20;99.90
44229;DHT22;29904;51.058;5.378;2024-02-04T10:28:48;11.20;99.90
44229;DHT22;29904;51.058;5.378;2024-02-04T10:31:14;11.20;99.90
44229;DHT22;29904;51.058;5.378;2024-02-04T10:33:40;11.20;99.90
44229;DHT22;29904;51.058;5.378;2024-02-04T10:36:06;11.20;99.90
44229;DHT22;29904;51.058;5.378;2024-02-04T10:38:31;11.20;99.90
44229;DHT22;29904;51.058;5.378;2024-02-04T10:40:59;11.20;99.90
44229;DHT22;29904;51.058;5.378;2024-02-04T10:43:24;11.20;99.90
44229;DHT22;29904;51.058;5.378;2024-02-04T10:45:55;11.20;99.90
44229;DHT22;29904;51.058;5.378;2024-02-04T10:48:22;11.30;99.90
44229;DHT22;29904;51.058;5.378;2024-02-04T10:50:50;11.30;99.90
44229;DHT22;29904;51.058;5.378;2024-02-04T10:53:16;11.20;99.90
44229;DHT22;29904;51.058;5.378;2024-02-04T10:55:45;11.20;99.90
44229;DHT22;29904;51.058;5.378;2024-02-04T10:58:12;11.20;99.90
44229;DHT22;29904;51.058;5.378;2024-02-04T11:00:38;11.20;99.90
44229;DHT22;29904;51.058;5.378;2024-02-04T11:03:05;11.20;99.90
44229;DHT22;29904;51.058;5.378;2024-02-04T11:05:31;11.20;99.90
44229;DHT22;29904;51.058;5.378;2024-02-04T11:07:57;11.10;99.90
44229;DHT22;29904;51.058;5.378;2024-02-04T11:10:24;11.10;99.90
44229;DHT22;29904;51.058;5.378;2024-02-04T11:12:50;11.10;99.90
44229;DHT22;29904;51.058;5.378;2024-02-04T11:15:16;11.10;99.90
44229;DHT22;29904;51.058;5.378;2024-02-04T11:17:57;11.10;99.90
44229;DHT22;29904;51.058;5.378;2024-02-04T11:23:14;11.20;99.90
44229;DHT22;29904;51.058;5.378;2024-02-04T11:25:46;11.20;99.90
44229;DHT22;29904;51.058;5.378;2024-02-04T11:28:13;11.20;99.90
44229;DHT22;29904;51.058;5.378;2024-02-04T11:30:40;11.30;99.90
44229;DHT22;29904;51.058;5.378;2024-02-04T11:33:09;11.30;99.90
44229;DHT22;29904;51.058;5.378;2024-02-04T11:35:36;11.30;99.90
44229;DHT22;29904;51.058;5.378;2024-02-04T11:38:04;11.40;99.90
44229;DHT22;29904;51.058;5.378;2024-02-04T11:40:39;11.40;99.90
44229;DHT22;29904;51.058;5.378;2024-02-04T11:45:30;11.40;99.90
44229;DHT22;29904;51.058;5.378;2024-02-04T11:48:02;11.40;99.90
44229;DHT22;29904;51.058;5.378;2024-02-04T11:50:30;11.50;99.90
44229;DHT22;29904;51.058;5.378;2024-02-04T11:53:09;11.50;99.90
44229;DHT22;29904;51.058;5.378;2024-02-04T11:55:35;11.50;99.90
44229;DHT22;29904;51.058;5.378;2024-02-04T11:58:04;11.50;99.90
44229;DHT22;29904;51.058;5.378;2024-02-04T12:00:31;11.60;99.90
44229;DHT22;29904;51.058;5.378;2024-02-04T12:03:03;11.60;99.90
44229;DHT22;29904;51.058;5.378;2024-02-04T12:05:33;11.60;99.90
44229;DHT22;29904;51.058;5.378;2024-02-04T12:08:00;11.60;99.90
44229;DHT22;29904;51.058;5.378;2024-02-04T12:10:26;11.60;99.90
44229;DHT22;29904;51.058;5.378;2024-02-04T12:12:52;11.60;99.90
44229;DHT22;29904;51.058;5.378;2024-02-04T12:15:18;11.70;99.90
44229;DHT22;29904;51.058;5.378;2024-02-04T12:17:43;11.80;99.90
44229;DHT22;29904;51.058;5.378;2024-02-04T12:20:09;11.80;99.90
44229;DHT22;29904;51.058;5.378;2024-02-04T12:22:35;11.90;99.90
44229;DHT22;29904;51.058;5.378;2024-02-04T12:25:01;11.90;99.90
44229;DHT22;29904;51.058;5.378;2024-02-04T12:27:27;12.00;99.90
44229;DHT22;29904;51.058;5.378;2024-02-04T12:29:53;12.00;99.90
44229;DHT22;29904;51.058;5.378;2024-02-04T12:32:18;12.10;99.90
44229;DHT22;29904;51.058;5.378;2024-02-04T12:34:47;12.10;99.90
44229;DHT22;29904;51.058;5.378;2024-02-04T12:37:12;12.10;99.90
44229;DHT22;29904;51.058;5.378;2024-02-04T12:39:38;12.10;99.90
44229;DHT22;29904;51.058;5.378;2024-02-04T12:42:04;12.00;99.90
44229;DHT22;29904;51.058;5.378;2024-02-04T12:44:30;12.00;99.90
44229;DHT22;29904;51.058;5.378;2024-02-04T12:46:55;12.00;99.90
44229;DHT22;29904;51.058;5.378;2024-02-04T12:49:21;12.00;99.90
44229;DHT22;29904;51.058;5.378;2024-02-04T12:51:47;12.00;99.90
44229;DHT22;29904;51.058;5.378;2024-02-04T12:54:13;12.00;99.90
44229;DHT22;29904;51.058;5.378;2024-02-04T13:01:54;11.90;99.90
44229;DHT22;29904;51.058;5.378;2024-02-04T13:04:21;11.90;99.90
44229;DHT22;29904;51.058;5.378;2024-02-04T13:06:46;12.00;99.90
44229;DHT22;29904;51.058;5.378;2024-02-04T13:09:13;12.00;99.90
44229;DHT22;29904;51.058;5.378;2024-02-04T13:11:41;12.00;99.90
44229;DHT22;29904;51.058;5.378;2024-02-04T13:14:07;12.00;99.90
44229;DHT22;29904;51.058;5.378;2024-02-04T13:16:33;11.90;99.90
44229;DHT22;29904;51.058;5.378;2024-02-04T13:19:04;11.90;99.90
44229;DHT22;29904;51.058;5.378;2024-02-04T13:21:30;11.90;99.90
44229;DHT22;29904;51.058;5.378;2024-02-04T13:23:56;11.90;99.90
44229;DHT22;29904;51.058;5.378;2024-02-04T13:26:21;11.80;99.90
44229;DHT22;29904;51.058;5.378;2024-02-04T13:28:47;11.80;99.90
44229;DHT22;29904;51.058;5.378;2024-02-04T13:31:13;11.80;99.90
44229;DHT22;29904;51.058;5.378;2024-02-04T13:33:39;11.80;99.90
44229;DHT22;29904;51.058;5.378;2024-02-04T13:36:05;11.80;99.90
44229;DHT22;29904;51.058;5.378;2024-02-04T13:38:31;11.80;99.90
44229;DHT22;29904;51.058;5.378;2024-02-04T13:40:57;11.70;99.90
44229;DHT22;29904;51.058;5.378;2024-02-04T13:43:22;11.70;99.90
44229;DHT22;29904;51.058;5.378;2024-02-04T13:45:48;11.70;99.90
44229;DHT22;29904;51.058;5.378;2024-02-04T13:48:13;11.60;99.90
44229;DHT22;29904;51.058;5.378;2024-02-04T13:50:39;11.70;99.90
44229;DHT22;29904;51.058;5.378;2024-02-04T13:53:04;11.70;99.90
44229;DHT22;29904;51.058;5.378;2024-02-04T13:55:30;11.70;99.90
44229;DHT22;29904;51.058;5.378;2024-02-04T13:57:56;11.70;99.90
44229;DHT22;29904;51.058;5.378;2024-02-04T14:00:21;11.70;99.90
44229;DHT22;29904;51.058;5.378;2024-02-04T14:02:47;11.80;99.90
44229;DHT22;29904;51.058;5.378;2024-02-04T14:05:13;11.80;99.90
44229;DHT22;29904;51.058;5.378;2024-02-04T14:07:38;11.80;99.90
44229;DHT22;29904;51.058;5.378;2024-02-04T14:10:04;11.90;99.90
44229;DHT22;29904;51.058;5.378;2024-02-04T14:12:30;11.80;99.90
44229;DHT22;29904;51.058;5.378;2024-02-04T14:14:57;11.80;99.90
44229;DHT22;29904;51.058;5.378;2024-02-04T14:17:22;11.80;99.90
44229;DHT22;29904;51.058;5.378;2024-02-04T14:19:48;11.80;99.90
44229;DHT22;29904;51.058;5.378;2024-02-04T14:22:16;11.80;99.90
44229;DHT22;29904;51.058;5.378;2024-02-04T14:24:46;11.90;99.90
44229;DHT22;29904;51.058;5.378;2024-02-04T14:27:11;11.80;99.90
44229;DHT22;29904;51.058;5.378;2024-02-04T14:29:37;11.90;99.90
44229;DHT22;29904;51.058;5.378;2024-02-04T14:32:03;11.70;99.90
44229;DHT22;29904;51.058;5.378;2024-02-04T14:34:28;11.70;99.90
44229;DHT22;29904;51.058;5.378;2024-02-04T14:36:54;11.70;99.90
44229;DHT22;29904;51.058;5.378;2024-02-04T14:39:20;11.70;99.90
44229;DHT22;29904;51.058;5.378;2024-02-04T14:41:45;11.70;99.90
44229;DHT22;29904;51.058;5.378;2024-02-04T14:44:11;11.70;99.90
44229;DHT22;29904;51.058;5.378;2024-02-04T14:46:37;11.60;99.90
44229;DHT22;29904;51.058;5.378;2024-02-04T14:49:03;11.60;99.90
44229;DHT22;29904;51.058;5.378;2024-02-04T14:51:29;11.60;99.90
44229;DHT22;29904;51.058;5.378;2024-02-04T14:53:56;11.50;99.90
44229;DHT22;29904;51.058;5.378;2024-02-04T14:56:23;11.50;99.90
44229;DHT22;29904;51.058;5.378;2024-02-04T14:58:49;11.40;99.90
44229;DHT22;29904;51.058;5.378;2024-02-04T15:01:14;11.40;99.90
44229;DHT22;29904;51.058;5.378;2024-02-04T15:03:40;11.30;99.90
44229;DHT22;29904;51.058;5.378;2024-02-04T15:06:06;11.30;99.90
44229;DHT22;29904;51.058;5.378;2024-02-04T15:08:32;11.30;99.90
44229;DHT22;29904;51.058;5.378;2024-02-04T15:10:57;11.30;99.90
44229;DHT22;29904;51.058;5.378;2024-02-04T15:13:23;11.30;99.90
44229;DHT22;29904;51.058;5.378;2024-02-04T15:15:49;11.30;99.90
44229;DHT22;29904;51.058;5.378;2024-02-04T15:18:15;11.30;99.90
44229;DHT22;29904;51.058;5.378;2024-02-04T15:20:40;11.30;99.90
44229;DHT22;29904;51.058;5.378;2024-02-04T15:23:06;11.40;99.90
44229;DHT22;29904;51.058;5.378;2024-02-04T15:25:32;11.40;99.90
44229;DHT22;29904;51.058;5.378;2024-02-04T15:27:58;11.40;99.90
44229;DHT22;29904;51.058;5.378;2024-02-04T15:30:24;11.40;99.90
44229;DHT22;29904;51.058;5.378;2024-02-04T15:32:50;11.40;99.90
44229;DHT22;29904;51.058;5.378;2024-02-04T15:35:17;11.40;99.90